Time;durP1;ratioP1;P1;durP2;ratioP2;P2;SDS_P1;SDS_P2;PMS_P1;PMS_P2;Temp;Humidity;BMP_temperature;BMP_pressure;BME280_temperature;BME280_humidity;BME280_pressure;Samples;Min_cycle;Max_cycle;Signal;HPM_P1;HPM_P2
2022/12/22 10:50:56;;;;;;;5.97;1.52;;;10.80;1.00;;;;;;5158035;22;20444;-54
2022/12/22 10:53:46;;;;;;;5.80;0.80;;;10.90;1.00;;;;;;5151461;27;20397;-54
2022/12/22 10:56:26;;;;;;;5.07;1.08;;;11.00;1.00;;;;;;5151428;27;20368;-56
2022/12/22 10:59:19;;;;;;;6.85;1.70;;;10.90;1.00;;;;;;5151186;27;20404;-55
2022/12/22 11:01:45;;;;;;;5.57;1.08;;;11.10;1.00;;;;;;5151970;27;20830;-54
2022/12/22 11:04:22;;;;;;;8.10;1.70;;;11.00;1.00;;;;;;5151247;27;20411;-54
2022/12/22 11:06:48;;;;;;;5.90;1.20;;;11.10;99.90;;;;;;5151558;27;20392;-54
2022/12/22 11:09:14;;;;;;;4.43;0.70;;;11.20;99.90;;;;;;5151088;27;20761;-55
2022/12/22 11:12:07;;;;;;;8.30;1.60;;;11.30;99.90;;;;;;5151173;27;20414;-54
2022/12/22 11:14:48;;;;;;;7.85;1.10;;;11.40;99.90;;;;;;5138144;27;20488;-55
2022/12/22 11:17:19;;;;;;;5.88;0.82;;;11.50;99.90;;;;;;5149775;27;20388;-54
2022/12/22 11:20:20;;;;;;;5.20;0.50;;;11.40;99.90;;;;;;5131455;28;20414;-55
2022/12/22 11:22:53;;;;;;;4.70;0.80;;;11.60;99.90;;;;;;5133120;27;20436;-55
2022/12/22 11:25:21;;;;;;;4.55;0.38;;;11.60;99.90;;;;;;5150605;27;20726;-54
2022/12/22 11:28:25;;;;;;;4.90;0.67;;;11.50;99.90;;;;;;5150376;27;20388;-54
2022/12/22 11:31:09;;;;;;;3.70;0.30;;;11.60;1.00;;;;;;5152034;27;20361;-54
2022/12/22 11:34:11;;;;;;;5.50;0.50;;;11.60;99.90;;;;;;5151322;27;20384;-54
2022/12/22 11:37:14;;;;;;;3.90;0.40;;;11.80;99.90;;;;;;5151378;27;20834;-54
2022/12/22 11:40:05;;;;;;;4.80;0.60;;;11.80;99.90;;;;;;5150576;27;20397;-54
2022/12/22 11:42:51;;;;;;;4.50;0.60;;;11.80;97.90;;;;;;5150168;27;20396;-55
2022/12/22 11:45:39;;;;;;;5.93;0.52;;;11.80;99.90;;;;;;5150334;27;20388;-54
2022/12/22 11:48:23;;;;;;;5.15;0.60;;;12.00;99.90;;;;;;5152149;27;20373;-54
2022/12/22 11:50:51;;;;;;;3.90;0.40;;;12.10;99.90;;;;;;5155283;27;20429;-54
2022/12/22 11:53:40;;;;;;;3.83;0.35;;;12.10;1.00;;;;;;5154479;27;20365;-54
2022/12/22 11:56:22;;;;;;;4.45;0.63;;;12.20;1.00;;;;;;5154591;27;20376;-54
2022/12/22 11:59:03;;;;;;;6.20;0.60;;;12.10;1.00;;;;;;5155023;27;20416;-55
2022/12/22 12:01:59;;;;;;;3.97;0.52;;;12.20;99.90;;;;;;5155616;27;20400;-54
2022/12/22 12:04:52;;;;;;;3.80;0.50;;;12.20;99.90;;;;;;5155045;27;20385;-54
2022/12/22 12:07:47;;;;;;;3.60;0.30;;;12.40;1.00;;;;;;5154084;27;20408;-54
2022/12/22 12:10:27;;;;;;;5.40;0.70;;;12.40;99.90;;;;;;5061935;27;20427;-54
2022/12/22 12:13:30;;;;;;;3.90;0.30;;;12.50;99.90;;;;;;5155026;27;20384;-55
2022/12/22 12:16:08;;;;;;;6.15;0.45;;;12.50;99.90;;;;;;5141522;27;20476;-54
2022/12/22 12:18:51;;;;;;;3.90;0.43;;;12.60;5.30;;;;;;5140426;27;20425;-55
2022/12/22 12:21:20;;;;;;;3.90;0.40;;;12.70;1.00;;;;;;5149069;27;20377;-55
2022/12/22 12:24:23;;;;;;;4.10;0.60;;;13.00;1.00;;;;;;5154866;27;20381;-54
2022/12/22 12:27:01;;;;;;;4.97;0.50;;;12.90;1.00;;;;;;5135822;27;20844;-54
2022/12/22 12:29:33;;;;;;;4.07;0.38;;;12.90;99.90;;;;;;5134209;27;20378;-54
2022/12/22 12:32:05;;;;;;;4.05;0.40;;;12.80;99.90;;;;;;5137688;27;20369;-54
2022/12/22 12:34:36;;;;;;;3.80;0.40;;;12.80;99.90;;;;;;5153812;27;20381;-54
2022/12/22 12:37:16;;;;;;;4.10;0.40;;;12.80;99.90;;;;;;5154002;27;20463;-57
2022/12/22 12:39:50;;;;;;;3.95;0.40;;;12.80;99.90;;;;;;5146815;27;20403;-55
2022/12/22 12:42:33;;;;;;;4.90;0.50;;;13.00;99.90;;;;;;5145441;27;20373;-57
2022/12/22 12:45:01;;;;;;;5.10;0.80;;;12.90;99.90;;;;;;5153701;27;20389;-55
2022/12/22 12:47:30;;;;;;;5.38;0.68;;;13.00;99.90;;;;;;5153266;27;20381;-52
2022/12/22 12:50:15;;;;;;;4.20;0.80;;;12.90;99.90;;;;;;5152873;27;20797;-53
2022/12/22 12:52:42;;;;;;;4.80;0.40;;;12.80;99.90;;;;;;5153132;27;20389;-54
2022/12/22 12:55:31;;;;;;;5.30;0.50;;;12.70;99.90;;;;;;5141990;27;20760;-54
2022/12/22 12:57:58;;;;;;;4.10;0.50;;;12.60;99.90;;;;;;5132818;27;20454;-57
2022/12/22 13:00:33;;;;;;;3.90;0.50;;;12.60;99.90;;;;;;5152132;27;20373;-53
2022/12/22 13:03:33;;;;;;;4.00;0.40;;;12.70;99.90;;;;;;5153916;27;20449;-53
2022/12/22 13:06:01;;;;;;;5.30;0.50;;;12.50;99.90;;;;;;5153343;27;20395;-53
2022/12/22 13:08:30;;;;;;;5.30;0.50;;;12.70;99.90;;;;;;5153631;27;20373;-53
2022/12/22 13:10:56;;;;;;;6.00;0.60;;;12.80;99.90;;;;;;5153139;27;20394;-53
2022/12/22 13:13:22;;;;;;;5.50;0.60;;;12.80;99.90;;;;;;5152625;27;20554;-54
2022/12/22 13:16:07;;;;;;;5.43;0.60;;;12.80;99.90;;;;;;5152649;27;20393;-53
2022/12/22 13:18:33;;;;;;;4.20;0.50;;;12.80;45.10;;;;;;5088750;27;20430;-53
2022/12/22 13:21:13;;;;;;;3.97;0.32;;;12.80;96.90;;;;;;5132491;27;20455;-54
2022/12/22 13:24:14;;;;;;;5.03;0.63;;;12.70;99.90;;;;;;5147338;27;20450;-54
2022/12/22 13:26:42;;;;;;;4.85;0.50;;;12.70;99.90;;;;;;5134084;27;20393;-53
2022/12/22 13:29:22;;;;;;;4.30;0.70;;;12.70;99.90;;;;;;5152288;27;20426;-53
2022/12/22 13:31:56;;;;;;;6.45;0.70;;;12.50;99.90;;;;;;5153731;27;20365;-53
2022/12/22 13:34:57;;;;;;;4.90;0.50;;;12.60;99.90;;;;;;5144881;27;20379;-53
2022/12/22 13:37:25;;;;;;;4.75;0.40;;;12.70;99.90;;;;;;5131992;27;20835;-53
2022/12/22 13:40:11;;;;;;;4.50;0.52;;;12.80;99.90;;;;;;5142416;27;20397;-53
2022/12/22 13:42:46;;;;;;;4.90;0.30;;;12.80;99.90;;;;;;5152611;27;20452;-53
2022/12/22 13:45:15;;;;;;;4.60;0.50;;;12.70;99.90;;;;;;5133459;27;20376;-53
2022/12/22 13:47:42;;;;;;;4.72;0.57;;;12.70;99.90;;;;;;5153155;27;20369;-53
2022/12/22 13:50:40;;;;;;;7.57;0.60;;;12.70;99.90;;;;;;5152120;27;20397;-53
2022/12/22 13:53:08;;;;;;;4.43;0.40;;;12.70;99.90;;;;;;5135079;27;20504;-53
2022/12/22 13:55:36;;;;;;;5.50;0.90;;;12.40;99.90;;;;;;5144490;27;20462;-53
2022/12/22 13:58:28;;;;;;;6.50;0.90;;;12.40;99.90;;;;;;5152493;27;20381;-56
2022/12/22 14:01:17;;;;;;;5.68;0.60;;;12.40;99.90;;;;;;5152707;27;20392;-53
2022/12/22 14:03:52;;;;;;;4.95;1.02;;;12.40;99.90;;;;;;5152438;27;20373;-53
2022/12/22 14:06:36;;;;;;;5.00;0.70;;;12.50;99.90;;;;;;5151473;27;20412;-53
2022/12/22 14:09:17;;;;;;;5.87;0.70;;;12.50;99.90;;;;;;5134854;27;20373;-57
2022/12/22 14:11:55;;;;;;;5.70;0.70;;;12.40;99.90;;;;;;5152126;27;20926;-54
2022/12/22 14:14:48;;;;;;;6.20;0.80;;;12.40;99.90;;;;;;5150186;27;20403;-53
2022/12/22 14:17:35;;;;;;;5.68;0.80;;;12.30;99.90;;;;;;5135057;27;20475;-53
2022/12/22 14:20:16;;;;;;;5.93;0.80;;;12.30;99.90;;;;;;5152165;27;20421;-54
2022/12/22 14:22:48;;;;;;;4.82;0.85;;;12.20;99.90;;;;;;5152326;27;20381;-54
2022/12/22 14:25:43;;;;;;;5.65;0.88;;;12.30;99.90;;;;;;5150816;27;20910;-54
2022/12/22 14:28:33;;;;;;;5.50;0.70;;;12.00;99.90;;;;;;5122786;27;20931;-53
2022/12/22 14:31:01;;;;;;;4.85;0.50;;;12.00;99.90;;;;;;5130874;27;20469;-53
2022/12/22 14:33:30;;;;;;;5.10;0.70;;;12.20;99.90;;;;;;5150244;27;20480;-53
2022/12/22 14:36:17;;;;;;;6.78;1.05;;;12.20;99.90;;;;;;5152180;27;20884;-53
2022/12/22 14:38:48;;;;;;;6.65;1.15;;;12.10;99.90;;;;;;5151347;27;20405;-54
2022/12/22 14:41:43;;;;;;;6.70;1.05;;;12.20;99.90;;;;;;5150570;27;20393;-54
2022/12/22 14:44:24;;;;;;;8.05;1.70;;;12.20;99.90;;;;;;5150490;27;20902;-53
2022/12/22 14:47:13;;;;;;;5.55;0.60;;;12.20;99.90;;;;;;5151320;27;20389;-53
2022/12/22 14:50:08;;;;;;;5.40;0.90;;;12.20;99.90;;;;;;5150816;27;20427;-54
2022/12/22 14:52:44;;;;;;;4.60;0.80;;;12.00;99.90;;;;;;5140372;27;20389;-53
2022/12/22 14:55:30;;;;;;;12.63;1.55;;;12.10;99.90;;;;;;5150415;27;20544;-54
2022/12/22 14:58:00;;;;;;;11.80;1.30;;;12.10;99.90;;;;;;5154776;27;20400;-53
2022/12/22 15:00:36;;;;;;;6.97;1.17;;;12.30;99.90;;;;;;5146131;27;21081;-53
2022/12/22 15:03:34;;;;;;;7.30;1.20;;;12.10;99.90;;;;;;5140964;27;20421;-54
2022/12/22 15:06:27;;;;;;;7.57;1.30;;;12.30;99.90;;;;;;5146962;27;20913;-53
2022/12/22 15:09:05;;;;;;;8.48;1.00;;;12.10;91.00;;;;;;5143419;27;20398;-53
2022/12/22 15:11:31;;;;;;;6.80;1.20;;;12.20;99.90;;;;;;5145755;27;20395;-53
2022/12/22 15:13:57;;;;;;;6.70;1.08;;;12.20;60.00;;;;;;5151691;27;20425;-54
2022/12/22 15:16:24;;;;;;;11.20;1.50;;;12.30;76.10;;;;;;5149117;27;20443;-54
2022/12/22 15:18:51;;;;;;;8.07;1.40;;;12.40;1.30;;;;;;5146767;27;20513;-53
2022/12/22 15:21:18;;;;;;;10.80;1.47;;;12.30;47.30;;;;;;5143064;27;20394;-53
2022/12/22 15:23:44;;;;;;;8.07;1.55;;;12.10;1.00;;;;;;5143891;27;20392;-53
2022/12/22 15:26:10;;;;;;;8.13;1.40;;;12.00;1.00;;;;;;5143372;27;20396;-54
2022/12/22 15:28:35;;;;;;;9.60;1.70;;;11.90;1.00;;;;;;5147071;27;20480;-54
2022/12/22 15:31:03;;;;;;;7.60;1.67;;;11.90;8.60;;;;;;5148092;27;20377;-54
2022/12/22 15:33:29;;;;;;;10.90;2.13;;;11.90;1.00;;;;;;5144611;27;20435;-54
2022/12/22 15:35:55;;;;;;;5.20;0.90;;;12.00;9.80;;;;;;5145741;27;20464;-54
2022/12/22 15:38:23;;;;;;;9.07;1.70;;;12.00;2.30;;;;;;5146335;27;20919;-54
2022/12/22 15:40:49;;;;;;;7.60;1.20;;;12.10;1.00;;;;;;5146126;27;20405;-53
2022/12/22 15:43:15;;;;;;;8.50;1.90;;;11.90;11.90;;;;;;5146961;27;20384;-53
2022/12/22 15:45:41;;;;;;;12.00;1.45;;;11.90;1.00;;;;;;5149287;27;20385;-53
2022/12/22 15:48:12;;;;;;;8.95;1.73;;;11.80;1.00;;;;;;5144934;27;20465;-53
2022/12/22 15:50:42;;;;;;;10.57;1.80;;;11.80;1.00;;;;;;5144928;27;20395;-53
2022/12/22 15:53:14;;;;;;;9.85;1.75;;;11.80;1.00;;;;;;5147533;27;20365;-53
2022/12/22 15:55:43;;;;;;;6.30;1.40;;;11.70;1.00;;;;;;5143217;27;20379;-53
2022/12/22 15:58:14;;;;;;;8.43;1.10;;;11.70;1.00;;;;;;5133315;27;20454;-54
2022/12/22 16:00:40;;;;;;;13.38;2.35;;;11.80;1.00;;;;;;5134532;27;20367;-53
2022/12/22 16:03:06;;;;;;;7.23;1.50;;;11.80;1.00;;;;;;5151707;27;20412;-53
2022/12/22 16:05:32;;;;;;;9.00;1.63;;;11.80;1.00;;;;;;5152520;27;20399;-54
2022/12/22 16:08:00;;;;;;;8.43;1.60;;;11.90;1.00;;;;;;5112064;27;20408;-54
2022/12/22 16:10:27;;;;;;;8.18;1.70;;;11.90;1.00;;;;;;5145847;27;20425;-54
2022/12/22 16:12:59;;;;;;;7.82;1.45;;;11.80;1.00;;;;;;5146598;27;20390;-54
2022/12/22 16:15:30;;;;;;;8.18;1.38;;;11.80;1.00;;;;;;5146444;27;20382;-54
2022/12/22 16:17:56;;;;;;;7.30;1.40;;;11.80;1.00;;;;;;5143115;27;20428;-53
2022/12/22 16:20:22;;;;;;;6.80;1.30;;;11.60;20.00;;;;;;5139878;27;20514;-53
2022/12/22 16:22:50;;;;;;;6.97;1.35;;;11.70;66.60;;;;;;5134515;27;20408;-54
2022/12/22 16:25:20;;;;;;;6.40;1.13;;;11.70;99.90;;;;;;5151106;27;20463;-54
2022/12/22 16:27:48;;;;;;;10.82;1.80;;;11.70;96.80;;;;;;5144314;27;20461;-54
2022/12/22 16:30:22;;;;;;;9.07;1.42;;;11.70;99.90;;;;;;5145032;27;20381;-53
2022/12/22 16:32:48;;;;;;;10.70;1.70;;;11.60;99.90;;;;;;5144043;27;20387;-54
2022/12/22 16:35:18;;;;;;;9.03;1.43;;;11.50;99.90;;;;;;5142593;27;20385;-53
2022/12/22 16:37:44;;;;;;;7.85;1.00;;;11.40;99.90;;;;;;5145225;27;20449;-53
2022/12/22 16:40:11;;;;;;;7.28;1.17;;;11.30;99.90;;;;;;5142084;27;20443;-53
2022/12/22 16:42:38;;;;;;;6.22;1.30;;;11.20;99.90;;;;;;5142979;27;20442;-56
2022/12/22 16:45:13;;;;;;;6.90;1.23;;;11.10;1.00;;;;;;5143496;27;20385;-56
2022/12/22 16:47:38;;;;;;;7.30;1.30;;;11.00;1.00;;;;;;5144220;27;20369;-53
2022/12/22 16:50:15;;;;;;;8.40;1.60;;;11.00;1.00;;;;;;5141900;27;20797;-56
2022/12/22 16:52:41;;;;;;;11.23;2.15;;;11.00;99.90;;;;;;5142543;27;20375;-53
2022/12/22 16:55:19;;;;;;;5.85;1.40;;;11.00;99.90;;;;;;5143297;27;20411;-54
2022/12/22 16:57:44;;;;;;;8.32;1.30;;;10.90;99.90;;;;;;5141559;27;20376;-55
2022/12/22 17:00:20;;;;;;;9.30;1.83;;;10.80;1.00;;;;;;5132983;27;20402;-56
2022/12/22 17:03:21;;;;;;;8.70;1.70;;;10.80;1.00;;;;;;5138240;27;20389;-54
2022/12/22 17:05:53;;;;;;;9.55;1.90;;;10.80;1.00;;;;;;5140313;27;20420;-55
2022/12/22 17:08:26;;;;;;;7.87;1.57;;;10.80;1.00;;;;;;5143894;27;20365;-55
2022/12/22 17:10:53;;;;;;;10.95;1.90;;;10.70;1.00;;;;;;5143769;27;20396;-54
2022/12/22 17:13:20;;;;;;;8.00;1.50;;;10.80;1.00;;;;;;5145944;27;20865;-53
2022/12/22 17:15:46;;;;;;;8.50;1.45;;;10.80;1.00;;;;;;5145148;27;20394;-53
2022/12/22 17:18:17;;;;;;;8.90;1.70;;;10.70;8.10;;;;;;5139437;27;20383;-52
2022/12/22 17:20:44;;;;;;;9.23;2.00;;;10.70;65.90;;;;;;5145582;27;20377;-53
2022/12/22 17:23:43;;;;;;;8.85;1.42;;;10.80;1.00;;;;;;5141908;27;20493;-55
2022/12/22 17:26:12;;;;;;;7.45;1.58;;;10.80;1.00;;;;;;5141537;27;20451;-55
2022/12/22 17:28:38;;;;;;;10.90;1.60;;;10.80;1.00;;;;;;5143425;27;20882;-55
2022/12/22 17:31:05;;;;;;;11.15;2.30;;;10.90;1.00;;;;;;5150305;27;20388;-54
2022/12/22 17:33:32;;;;;;;9.57;1.40;;;10.90;1.00;;;;;;5148270;27;20522;-54
2022/12/22 17:35:58;;;;;;;9.30;1.20;;;10.90;1.00;;;;;;5143449;27;20385;-55
2022/12/22 17:38:26;;;;;;;14.48;2.00;;;10.90;1.00;;;;;;5141137;27;20389;-54
2022/12/22 17:40:52;;;;;;;9.38;1.33;;;10.90;1.00;;;;;;5144963;27;20369;-54
2022/12/22 17:43:19;;;;;;;7.10;1.57;;;10.90;1.00;;;;;;5139833;27;20447;-55
2022/12/22 17:45:46;;;;;;;10.57;1.80;;;10.80;99.90;;;;;;5139174;27;20401;-54
2022/12/22 17:48:15;;;;;;;15.13;1.50;;;10.70;1.00;;;;;;5142845;27;20394;-57
2022/12/22 17:50:43;;;;;;;8.10;1.63;;;10.70;83.60;;;;;;5142836;27;20400;-54
2022/12/22 17:53:16;;;;;;;10.88;1.70;;;10.80;1.00;;;;;;5145232;27;20392;-55
2022/12/22 17:55:42;;;;;;;10.77;1.67;;;10.70;1.00;;;;;;5142665;27;20362;-54
2022/12/22 17:58:13;;;;;;;7.97;1.60;;;10.70;1.00;;;;;;5140904;27;20362;-56
2022/12/22 18:00:39;;;;;;;14.30;1.70;;;10.70;99.90;;;;;;5141989;27;20394;-55
2022/12/22 18:03:04;;;;;;;6.13;1.38;;;10.80;92.70;;;;;;5144478;27;20912;-55
2022/12/22 18:05:39;;;;;;;7.83;1.40;;;10.70;99.90;;;;;;5140675;27;20880;-55
2022/12/22 18:08:05;;;;;;;9.17;2.10;;;10.70;99.90;;;;;;5140115;27;20879;-54
2022/12/22 18:10:36;;;;;;;8.10;1.70;;;10.80;1.00;;;;;;5143247;27;20419;-54
2022/12/22 18:13:03;;;;;;;10.27;1.65;;;10.80;99.90;;;;;;5140484;27;20372;-54
2022/12/22 18:15:30;;;;;;;10.55;1.75;;;10.80;1.00;;;;;;5144271;27;20405;-54
2022/12/22 18:17:56;;;;;;;10.85;1.80;;;10.80;99.90;;;;;;5142789;27;20396;-54
2022/12/22 18:20:24;;;;;;;9.53;2.00;;;10.70;1.00;;;;;;5145116;27;20421;-54
2022/12/22 18:22:56;;;;;;;13.00;2.13;;;10.80;24.20;;;;;;5142980;27;20402;-55
2022/12/22 18:25:25;;;;;;;10.00;2.00;;;10.70;99.90;;;;;;5141658;27;20377;-54
2022/12/22 18:27:51;;;;;;;5.93;1.60;;;10.70;1.00;;;;;;5141470;27;20833;-54
2022/12/22 18:30:18;;;;;;;11.68;1.60;;;10.80;99.90;;;;;;5140067;27;20394;-54
2022/12/22 18:32:46;;;;;;;10.85;2.00;;;10.80;99.90;;;;;;5143601;27;20391;-54
2022/12/22 18:35:12;;;;;;;10.15;2.13;;;10.80;1.00;;;;;;5140731;27;20380;-54
2022/12/22 18:37:38;;;;;;;8.25;2.10;;;10.80;1.00;;;;;;5141181;27;20379;-54
2022/12/22 18:40:04;;;;;;;13.50;2.05;;;10.80;1.00;;;;;;5141782;27;20436;-54
2022/12/22 18:42:32;;;;;;;12.40;1.90;;;10.80;1.00;;;;;;5141151;27;20669;-54
2022/12/22 18:44:57;;;;;;;11.90;2.00;;;10.80;1.00;;;;;;5142683;27;20468;-55
2022/12/22 18:47:23;;;;;;;13.90;2.25;;;10.90;1.00;;;;;;5143616;27;20471;-53
2022/12/22 18:49:49;;;;;;;9.60;2.00;;;10.90;1.00;;;;;;5141493;27;20406;-53
2022/12/22 18:52:22;;;;;;;13.82;2.88;;;11.00;1.00;;;;;;5141314;27;20414;-53
2022/12/22 18:54:48;;;;;;;13.67;2.70;;;11.00;1.00;;;;;;5129359;27;20454;-54
2022/12/22 18:57:16;;;;;;;10.55;1.98;;;11.00;99.90;;;;;;5127033;27;20373;-54
2022/12/22 18:59:43;;;;;;;9.00;1.70;;;11.00;99.90;;;;;;5141628;27;20491;-53
2022/12/22 19:02:29;;;;;;;11.27;2.60;;;11.00;1.00;;;;;;5139421;27;20381;-57
2022/12/22 19:04:55;;;;;;;13.40;2.40;;;11.10;99.90;;;;;;5139840;27;20371;-53
2022/12/22 19:07:23;;;;;;;13.13;2.20;;;11.20;99.90;;;;;;5140084;27;20893;-53
2022/12/22 19:09:50;;;;;;;10.32;2.20;;;11.20;99.90;;;;;;5142964;27;20369;-53
2022/12/22 19:12:21;;;;;;;12.38;2.40;;;11.20;1.00;;;;;;5139466;27;20375;-53
2022/12/22 19:14:50;;;;;;;11.25;1.80;;;11.20;1.00;;;;;;5141336;27;20376;-53
2022/12/22 19:17:20;;;;;;;13.50;2.10;;;11.20;1.00;;;;;;5139621;27;20457;-54
2022/12/22 19:19:45;;;;;;;16.20;1.98;;;11.20;91.50;;;;;;5139929;27;20409;-54
2022/12/22 19:22:13;;;;;;;8.70;2.10;;;11.20;99.90;;;;;;5138534;27;20862;-54
2022/12/22 19:24:40;;;;;;;6.60;1.80;;;11.20;99.90;;;;;;5143500;27;20438;-56
2022/12/22 19:27:18;;;;;;;10.38;2.42;;;11.30;31.10;;;;;;5144806;27;20884;-55
2022/12/22 19:29:44;;;;;;;12.15;2.22;;;11.10;99.90;;;;;;5146647;27;20381;-55
2022/12/22 19:32:28;;;;;;;10.23;2.40;;;11.20;45.70;;;;;;5139709;27;20387;-58
2022/12/22 19:34:54;;;;;;;9.48;2.05;;;11.20;1.00;;;;;;5130924;27;20799;-55
2022/12/22 19:37:20;;;;;;;10.15;2.35;;;11.20;1.00;;;;;;5141007;27;20373;-53
2022/12/22 19:39:45;;;;;;;10.77;2.60;;;11.10;99.90;;;;;;5144221;27;20405;-55
2022/12/22 19:42:17;;;;;;;10.85;2.30;;;11.20;1.00;;;;;;5144063;27;20390;-55
2022/12/22 19:44:43;;;;;;;14.60;2.23;;;11.20;1.00;;;;;;5140687;27;20404;-52
2022/12/22 19:47:15;;;;;;;11.68;1.90;;;11.20;1.00;;;;;;5140394;27;20775;-56
2022/12/22 19:49:41;;;;;;;14.70;2.20;;;11.10;99.90;;;;;;5143389;27;20437;-54
2022/12/22 19:52:08;;;;;;;7.05;2.10;;;11.10;99.90;;;;;;5142853;27;20373;-53
2022/12/22 19:54:34;;;;;;;13.05;2.47;;;11.10;1.00;;;;;;5142707;27;20530;-54
2022/12/22 19:56:59;;;;;;;11.70;2.23;;;11.10;1.00;;;;;;5139568;27;20458;-53
2022/12/22 19:59:34;;;;;;;10.15;1.83;;;11.10;1.00;;;;;;5139620;27;20405;-54
2022/12/22 20:02:00;;;;;;;11.45;1.90;;;11.10;99.90;;;;;;5138791;27;20377;-54
2022/12/22 20:04:25;;;;;;;8.85;2.00;;;10.00;1.00;;;;;;5139506;27;20472;-54
2022/12/22 20:06:51;;;;;;;9.60;2.00;;;10.90;1.00;;;;;;5140390;27;20373;-55
2022/12/22 20:09:17;;;;;;;12.40;2.20;;;11.00;1.00;;;;;;5144580;27;20377;-54
2022/12/22 20:11:43;;;;;;;10.80;1.87;;;11.00;1.00;;;;;;5141441;27;20378;-54
2022/12/22 20:14:17;;;;;;;7.80;1.55;;;11.00;1.00;;;;;;5132287;27;20883;-57
2022/12/22 20:16:42;;;;;;;8.23;1.67;;;10.90;96.40;;;;;;5132078;27;20868;-55
2022/12/22 20:19:14;;;;;;;10.13;1.60;;;10.90;99.90;;;;;;5145205;27;20421;-58
2022/12/22 20:21:40;;;;;;;9.65;2.00;;;10.90;99.90;;;;;;5144779;27;20483;-54
2022/12/22 20:24:07;;;;;;;9.88;2.03;;;10.90;99.90;;;;;;5132019;27;20855;-54
2022/12/22 20:26:32;;;;;;;7.20;1.90;;;10.90;99.90;;;;;;5141847;27;20930;-54
2022/12/22 20:28:58;;;;;;;10.85;1.75;;;10.90;99.90;;;;;;5144491;27;20404;-54
2022/12/22 20:31:24;;;;;;;8.37;2.70;;;10.90;99.90;;;;;;5142008;27;21059;-55
2022/12/22 20:33:51;;;;;;;8.57;1.92;;;10.90;99.90;;;;;;5150337;27;20488;-54
2022/12/22 20:36:22;;;;;;;9.00;2.00;;;10.90;99.90;;;;;;5141719;27;20370;-54
2022/12/22 20:38:51;;;;;;;9.00;1.50;;;10.80;99.90;;;;;;5144937;27;20406;-54
2022/12/22 20:41:17;;;;;;;7.80;1.90;;;11.00;99.90;;;;;;5144605;27;20369;-55
2022/12/22 20:43:43;;;;;;;7.88;2.00;;;11.00;99.90;;;;;;5142785;27;20422;-55
2022/12/22 20:46:16;;;;;;;8.30;1.98;;;11.00;99.90;;;;;;5143134;27;20365;-55
2022/12/22 20:48:48;;;;;;;9.55;1.80;;;11.00;99.90;;;;;;5130428;27;20808;-56
2022/12/22 20:51:17;;;;;;;7.88;1.25;;;10.90;99.90;;;;;;5143472;27;20400;-56
2022/12/22 20:53:44;;;;;;;6.75;1.60;;;10.90;99.90;;;;;;5142812;27;20483;-55
2022/12/22 20:56:22;;;;;;;9.15;1.55;;;10.90;99.90;;;;;;5142296;27;20430;-59
2022/12/22 20:58:48;;;;;;;7.40;1.40;;;10.90;99.90;;;;;;5141385;27;20442;-56
2022/12/22 21:01:15;;;;;;;9.10;1.90;;;10.90;99.90;;;;;;5142869;27;20387;-55
2022/12/22 21:03:40;;;;;;;8.20;1.63;;;11.00;99.90;;;;;;5144075;27;20417;-55
2022/12/22 21:06:22;;;;;;;6.32;1.30;;;11.00;99.90;;;;;;5143297;27;20437;-55
2022/12/22 21:08:48;;;;;;;7.57;1.27;;;11.00;99.90;;;;;;5143065;27;20479;-55
2022/12/22 21:11:14;;;;;;;13.45;2.08;;;11.00;99.90;;;;;;5132917;27;20386;-55
2022/12/22 21:13:39;;;;;;;5.60;1.45;;;11.00;99.90;;;;;;5131455;27;20389;-54
2022/12/22 21:16:14;;;;;;;6.47;1.43;;;11.10;99.90;;;;;;5144998;27;20484;-54
2022/12/22 21:18:40;;;;;;;5.70;1.00;;;9.70;99.90;;;;;;5141316;27;20840;-55
2022/12/22 21:21:05;;;;;;;7.07;1.47;;;10.90;99.90;;;;;;5145310;27;20422;-54
2022/12/22 21:23:31;;;;;;;4.78;1.10;;;10.90;99.90;;;;;;5144455;27;20732;-55
2022/12/22 21:25:56;;;;;;;8.47;1.50;;;10.90;99.90;;;;;;5142898;27;20384;-55
2022/12/22 21:28:31;;;;;;;6.93;1.10;;;10.90;99.90;;;;;;5129257;27;20890;-54
2022/12/22 21:30:57;;;;;;;7.13;1.40;;;10.90;99.90;;;;;;5143399;27;20385;-55
2022/12/22 21:33:23;;;;;;;7.35;1.20;;;11.00;99.90;;;;;;5142613;27;20370;-53
2022/12/22 21:35:49;;;;;;;6.00;1.10;;;10.90;31.10;;;;;;5147693;27;20373;-54
2022/12/22 21:38:20;;;;;;;6.00;1.20;;;10.80;99.90;;;;;;5152036;27;20750;-54
2022/12/22 21:40:46;;;;;;;5.80;1.10;;;10.90;99.90;;;;;;5131874;27;20401;-55
2022/12/22 21:43:13;;;;;;;6.82;1.10;;;10.70;99.90;;;;;;5152995;27;20392;-58
2022/12/22 21:45:39;;;;;;;6.90;1.50;;;10.80;99.90;;;;;;5152604;27;20385;-54
2022/12/22 21:48:05;;;;;;;5.65;0.73;;;10.70;43.60;;;;;;5152460;27;20403;-54
2022/12/22 21:50:33;;;;;;;5.50;1.00;;;10.80;99.90;;;;;;5141421;27;20402;-54
2022/12/22 21:52:59;;;;;;;6.88;1.00;;;10.80;36.90;;;;;;5131982;27;20736;-54
2022/12/22 21:55:31;;;;;;;7.25;1.10;;;10.80;1.00;;;;;;5150048;27;20405;-54
2022/12/22 21:57:57;;;;;;;6.25;1.00;;;10.80;1.00;;;;;;5152685;27;20409;-54
2022/12/22 22:00:24;;;;;;;5.00;0.90;;;10.80;1.00;;;;;;5152066;27;20750;-54
2022/12/22 22:02:51;;;;;;;7.50;0.90;;;10.70;40.50;;;;;;5152901;27;20408;-54
2022/12/22 22:05:24;;;;;;;5.60;0.70;;;10.70;99.90;;;;;;5152288;27;20949;-54
2022/12/22 22:07:51;;;;;;;4.65;0.85;;;10.70;99.90;;;;;;5148277;27;20381;-54
2022/12/22 22:10:20;;;;;;;4.75;0.70;;;10.70;99.90;;;;;;5140375;27;20443;-54
2022/12/22 22:12:46;;;;;;;6.07;0.70;;;10.60;99.90;;;;;;5152177;27;20393;-54
2022/12/22 22:15:13;;;;;;;6.70;0.82;;;10.70;99.90;;;;;;5152009;27;20373;-55
2022/12/22 22:17:40;;;;;;;5.05;0.85;;;10.60;99.90;;;;;;5133173;27;20371;-54
2022/12/22 22:20:07;;;;;;;6.20;1.00;;;10.60;99.90;;;;;;5131425;27;20774;-54
2022/12/22 22:22:33;;;;;;;7.30;0.80;;;10.60;99.90;;;;;;5150294;27;20421;-54
2022/12/22 22:24:59;;;;;;;6.88;1.00;;;10.50;1.00;;;;;;5146389;27;20788;-53
2022/12/22 22:27:24;;;;;;;6.93;1.30;;;10.50;1.00;;;;;;5142027;27;20416;-54
2022/12/22 22:29:50;;;;;;;4.80;0.97;;;10.50;1.00;;;;;;5146455;27;20406;-56
2022/12/22 22:32:16;;;;;;;6.07;1.10;;;10.50;1.00;;;;;;5151218;27;20388;-58
2022/12/22 22:34:41;;;;;;;7.03;1.40;;;10.40;1.00;;;;;;5148225;27;20404;-54
2022/12/22 22:37:07;;;;;;;4.50;1.00;;;10.30;1.00;;;;;;5141757;27;20782;-54
2022/12/22 22:39:32;;;;;;;5.23;1.00;;;10.30;1.00;;;;;;5142377;27;20490;-56
2022/12/22 22:41:58;;;;;;;7.10;1.20;;;10.20;1.00;;;;;;5142860;27;20839;-55
2022/12/22 22:44:23;;;;;;;7.13;0.80;;;10.20;1.00;;;;;;5151062;27;20373;-58
2022/12/22 22:46:49;;;;;;;6.30;1.20;;;10.20;1.00;;;;;;5149508;27;20389;-55
2022/12/22 22:49:15;;;;;;;4.80;0.70;;;10.20;1.00;;;;;;5123847;27;20399;-55
2022/12/22 22:51:40;;;;;;;8.20;1.00;;;10.20;1.00;;;;;;5131598;27;20895;-55
2022/12/22 22:54:06;;;;;;;7.07;1.00;;;10.30;1.00;;;;;;5131244;27;20375;-55
2022/12/22 22:56:31;;;;;;;5.25;1.10;;;10.30;1.00;;;;;;5146677;27;20393;-55
2022/12/22 22:59:00;;;;;;;5.60;0.80;;;10.40;1.00;;;;;;5133848;27;20457;-54
2022/12/22 23:01:26;;;;;;;6.32;1.10;;;10.50;1.00;;;;;;5150954;27;20873;-55
2022/12/22 23:03:51;;;;;;;6.60;1.23;;;10.50;1.00;;;;;;5143324;27;20385;-55
2022/12/22 23:06:17;;;;;;;5.45;0.80;;;10.60;1.00;;;;;;5130402;27;20861;-55
2022/12/22 23:08:42;;;;;;;7.10;1.17;;;10.50;1.00;;;;;;5145862;27;20387;-55
2022/12/22 23:11:13;;;;;;;4.20;1.03;;;10.50;1.00;;;;;;5152007;27;20365;-55
2022/12/22 23:13:38;;;;;;;5.90;1.20;;;10.50;1.00;;;;;;5151664;27;20456;-54
2022/12/22 23:16:04;;;;;;;4.80;0.90;;;10.30;1.00;;;;;;5151492;27;20453;-55
2022/12/22 23:18:30;;;;;;;5.70;1.20;;;10.40;1.00;;;;;;5151282;27;20404;-54
2022/12/22 23:20:57;;;;;;;7.70;0.90;;;10.30;1.00;;;;;;5151472;27;20472;-55
2022/12/22 23:23:23;;;;;;;5.00;0.80;;;10.30;1.00;;;;;;5149823;27;20472;-54
2022/12/22 23:25:50;;;;;;;6.40;1.00;;;10.30;1.00;;;;;;5151552;27;20434;-55
2022/12/22 23:28:16;;;;;;;4.03;0.68;;;10.40;1.00;;;;;;5146288;27;20424;-58
2022/12/22 23:30:44;;;;;;;5.00;0.90;;;10.30;1.00;;;;;;5151982;27;20403;-55
2022/12/22 23:33:10;;;;;;;9.77;1.25;;;10.40;1.00;;;;;;5151958;27;20369;-55
2022/12/22 23:35:40;;;;;;;8.40;1.30;;;10.30;1.00;;;;;;5150556;27;20718;-55
2022/12/22 23:38:08;;;;;;;8.65;1.00;;;10.30;1.00;;;;;;5151447;27;20396;-55
2022/12/22 23:40:35;;;;;;;7.32;1.00;;;10.30;1.00;;;;;;5150798;27;20401;-54
2022/12/22 23:43:00;;;;;;;5.50;1.00;;;10.40;1.00;;;;;;5151113;27;20369;-54
2022/12/22 23:45:31;;;;;;;6.10;0.80;;;10.30;1.00;;;;;;5154324;27;20730;-54
2022/12/22 23:47:57;;;;;;;4.80;0.82;;;10.30;1.00;;;;;;5155251;27;20388;-54
2022/12/22 23:50:23;;;;;;;5.05;0.85;;;10.40;1.00;;;;;;5154432;27;20467;-54
2022/12/22 23:52:50;;;;;;;4.32;1.20;;;10.40;1.00;;;;;;5155985;27;20430;-54
2022/12/22 23:55:16;;;;;;;5.97;0.88;;;10.40;1.00;;;;;;5154858;27;20366;-59
2022/12/22 23:57:42;;;;;;;4.83;0.70;;;10.40;1.00;;;;;;5155388;27;20890;-55
